Time;durP1;ratioP1;P1;durP2;ratioP2;P2;SDS_P1;SDS_P2;PMS_P1;PMS_P2;Temp;Humidity;BMP_temperature;BMP_pressure;BME280_temperature;BME280_humidity;BME280_pressure;Samples;Min_cycle;Max_cycle;Signal;HPM_P1;HPM_P2
2022/07/25 03:00:48;;;;;;;4.10;3.80;;;30.50;42.40;;;;;;5766785;23;45936;-71
2022/07/25 03:03:14;;;;;;;3.63;3.38;;;30.50;42.40;;;;;;4899002;28;46709;-65
2022/07/25 03:05:41;;;;;;;3.88;3.58;;;30.50;42.30;;;;;;4930759;28;45532;-68
2022/07/25 03:08:07;;;;;;;4.03;3.72;;;30.50;42.30;;;;;;4930494;28;45761;-65
2022/07/25 03:10:35;;;;;;;4.20;3.80;;;30.50;42.30;;;;;;4932362;28;45415;-64
2022/07/25 03:13:01;;;;;;;4.15;3.75;;;30.50;42.40;;;;;;4936600;28;46002;-68
2022/07/25 03:15:27;;;;;;;3.80;3.50;;;30.50;42.40;;;;;;4933543;28;45192;-62
2022/07/25 03:17:54;;;;;;;3.90;3.60;;;30.50;42.40;;;;;;4934121;28;45549;-65
2022/07/25 03:20:20;;;;;;;4.15;3.85;;;30.50;42.40;;;;;;4932539;28;45548;-65
2022/07/25 03:22:46;;;;;;;3.97;3.67;;;30.50;42.40;;;;;;4934424;28;45945;-63
2022/07/25 03:25:12;;;;;;;3.80;3.50;;;30.50;42.40;;;;;;4934514;28;45437;-67
2022/07/25 03:27:39;;;;;;;3.67;3.38;;;30.50;42.40;;;;;;4934153;28;45488;-65
2022/07/25 03:30:06;;;;;;;3.90;3.60;;;30.50;42.40;;;;;;4934405;28;45217;-64
2022/07/25 03:32:32;;;;;;;4.80;4.40;;;30.50;42.40;;;;;;4932792;28;46060;-63
2022/07/25 03:34:58;;;;;;;6.78;4.80;;;30.50;42.30;;;;;;4929725;28;45440;-61
2022/07/25 03:37:24;;;;;;;5.70;5.20;;;30.40;41.40;;;;;;4932320;28;45486;-66
2022/07/25 03:39:51;;;;;;;6.75;6.05;;;30.30;41.00;;;;;;4933033;28;45316;-65
2022/07/25 03:42:17;;;;;;;10.25;6.22;;;30.20;40.70;;;;;;4934825;28;45909;-65
2022/07/25 03:44:43;;;;;;;9.20;6.85;;;30.10;40.60;;;;;;4935393;28;45143;-66
2022/07/25 03:47:10;;;;;;;7.07;6.38;;;29.90;40.40;;;;;;4934440;28;45353;-64
2022/07/25 03:49:36;;;;;;;8.35;6.63;;;29.80;40.30;;;;;;4927810;28;45272;-69
2022/07/25 03:52:03;;;;;;;6.80;6.20;;;29.80;40.30;;;;;;4929990;28;45981;-63
2022/07/25 03:54:29;;;;;;;6.88;6.20;;;29.60;40.30;;;;;;4914399;28;44982;-66
2022/07/25 03:56:56;;;;;;;8.93;5.90;;;29.50;40.30;;;;;;4927516;28;46233;-66
2022/07/25 03:59:22;;;;;;;9.88;6.85;;;29.40;40.30;;;;;;4932401;28;45413;-62
2022/07/25 04:01:49;;;;;;;7.55;6.60;;;29.30;40.30;;;;;;4914769;28;45414;-63
2022/07/25 04:04:16;;;;;;;7.65;6.82;;;29.20;40.30;;;;;;4932831;28;45422;-64
2022/07/25 04:06:43;;;;;;;7.30;5.90;;;29.20;40.50;;;;;;4920676;28;45235;-68
2022/07/25 04:09:09;;;;;;;6.78;6.07;;;29.10;40.50;;;;;;4904659;28;45233;-67
2022/07/25 04:11:37;;;;;;;10.90;6.82;;;29.00;40.60;;;;;;4935356;28;45723;-64
2022/07/25 04:14:03;;;;;;;8.38;7.40;;;29.00;40.70;;;;;;4935919;28;45220;-65
2022/07/25 04:16:30;;;;;;;8.07;7.28;;;28.90;41.40;;;;;;4940806;28;44996;-63
2022/07/25 04:18:56;;;;;;;9.93;6.78;;;28.80;40.80;;;;;;4943666;28;45600;-67
2022/07/25 04:21:23;;;;;;;7.30;6.43;;;28.80;41.00;;;;;;4914624;28;46292;-68
2022/07/25 04:23:49;;;;;;;8.63;6.72;;;28.70;41.10;;;;;;4918741;28;44696;-63
2022/07/25 04:26:15;;;;;;;7.85;6.90;;;28.60;41.20;;;;;;4919316;28;45764;-66
2022/07/25 04:28:41;;;;;;;8.55;6.95;;;28.60;41.40;;;;;;4917294;28;45379;-62
2022/07/25 04:31:08;;;;;;;9.13;7.28;;;28.40;41.60;;;;;;4936180;28;46172;-64
2022/07/25 04:33:38;;;;;;;10.50;7.22;;;28.40;41.80;;;;;;4934538;28;45268;-59
2022/07/25 04:36:04;;;;;;;9.45;6.85;;;28.30;42.00;;;;;;4920200;28;45512;-60
2022/07/25 04:38:31;;;;;;;11.73;7.57;;;28.30;42.10;;;;;;4936700;28;45266;-68
2022/07/25 04:40:57;;;;;;;10.80;6.75;;;28.30;42.20;;;;;;4925373;28;46076;-63
2022/07/25 04:43:24;;;;;;;9.00;7.38;;;28.20;42.30;;;;;;4935567;28;45504;-64
2022/07/25 04:45:50;;;;;;;11.40;6.78;;;28.20;42.40;;;;;;4936895;28;45615;-62
2022/07/25 04:48:16;;;;;;;8.93;7.28;;;28.10;42.50;;;;;;4934643;28;45665;-66
2022/07/25 04:50:44;;;;;;;12.85;7.60;;;28.10;42.60;;;;;;4943237;28;45433;-65
2022/07/25 04:53:10;;;;;;;8.65;6.35;;;28.00;42.70;;;;;;4904166;28;45370;-66
2022/07/25 04:55:37;;;;;;;12.40;7.43;;;28.00;42.90;;;;;;4940129;28;45399;-65
2022/07/25 04:58:04;;;;;;;16.42;7.40;;;27.90;43.10;;;;;;4939074;28;45353;-65
2022/07/25 05:00:31;;;;;;;9.50;7.15;;;27.80;43.30;;;;;;4942287;28;46007;-66
2022/07/25 05:02:57;;;;;;;15.63;8.63;;;27.80;43.50;;;;;;4917320;28;45560;-64
2022/07/25 05:05:23;;;;;;;9.85;7.43;;;27.70;43.80;;;;;;4937629;28;45451;-64
2022/07/25 05:07:54;;;;;;;9.63;7.43;;;27.50;44.10;;;;;;4935869;28;45514;-62
2022/07/25 05:10:20;;;;;;;9.40;7.13;;;27.40;44.50;;;;;;4937273;28;45243;-60
2022/07/25 05:12:46;;;;;;;10.43;7.72;;;27.20;44.80;;;;;;4939535;28;45218;-62
2022/07/25 05:15:13;;;;;;;11.20;7.18;;;27.10;45.00;;;;;;4904832;28;45216;-63
2022/07/25 05:17:39;;;;;;;10.45;8.07;;;27.10;45.00;;;;;;4938332;28;45205;-64
2022/07/25 05:20:06;;;;;;;9.05;7.05;;;27.20;45.00;;;;;;4921536;28;46251;-65
2022/07/25 05:22:32;;;;;;;8.82;7.18;;;27.20;45.00;;;;;;4948517;28;45503;-63
2022/07/25 05:25:01;;;;;;;8.65;7.28;;;27.30;45.10;;;;;;4920920;28;45316;-64
2022/07/25 05:27:27;;;;;;;10.18;6.97;;;27.20;45.20;;;;;;4936212;28;44681;-60
2022/07/25 05:29:53;;;;;;;8.65;6.63;;;27.30;45.30;;;;;;4940080;28;46779;-64
2022/07/25 05:32:20;;;;;;;9.07;7.38;;;27.10;45.90;;;;;;4937278;28;45418;-63
2022/07/25 05:34:46;;;;;;;10.32;8.35;;;27.00;46.30;;;;;;4923976;28;44788;-61
2022/07/25 05:37:12;;;;;;;8.45;6.90;;;26.90;46.50;;;;;;4942434;28;44938;-63
2022/07/25 05:39:39;;;;;;;9.25;6.95;;;26.80;47.00;;;;;;4935705;28;46172;-64
2022/07/25 05:42:06;;;;;;;9.10;7.15;;;26.70;46.80;;;;;;4942049;28;45654;-62
2022/07/25 05:44:32;;;;;;;9.32;6.53;;;26.60;47.00;;;;;;4936085;28;45548;-61
2022/07/25 05:46:58;;;;;;;10.15;7.28;;;26.60;47.60;;;;;;4942569;28;45319;-64
2022/07/25 05:49:25;;;;;;;8.40;6.93;;;26.50;46.90;;;;;;4946008;28;45230;-59
2022/07/25 05:51:51;;;;;;;9.75;7.22;;;26.50;47.20;;;;;;4938548;28;45247;-64
2022/07/25 05:54:17;;;;;;;8.88;7.00;;;26.50;47.10;;;;;;4936088;28;45163;-64
2022/07/25 05:56:44;;;;;;;9.18;6.53;;;26.50;47.10;;;;;;4936992;28;45483;-63
2022/07/25 05:59:10;;;;;;;8.52;6.03;;;26.50;46.80;;;;;;4938096;28;46171;-66
2022/07/25 06:01:37;;;;;;;15.35;6.13;;;26.70;46.20;;;;;;4938494;28;45479;-64
2022/07/25 06:04:03;;;;;;;10.50;5.55;;;27.00;45.80;;;;;;4934238;28;44744;-65
2022/07/25 06:06:31;;;;;;;8.45;5.35;;;27.10;45.40;;;;;;4935338;28;45700;-64
2022/07/25 06:08:57;;;;;;;8.07;5.50;;;27.30;45.10;;;;;;4938424;28;46025;-64
2022/07/25 06:11:26;;;;;;;6.25;5.10;;;27.40;44.90;;;;;;4934381;28;44684;-65
2022/07/25 06:13:53;;;;;;;9.90;5.32;;;27.50;44.70;;;;;;4936249;28;45207;-64
2022/07/25 06:16:19;;;;;;;5.95;5.22;;;27.60;44.60;;;;;;4925847;28;45626;-61
2022/07/25 06:18:45;;;;;;;9.05;5.45;;;27.70;44.50;;;;;;4938230;28;45900;-66
2022/07/25 06:21:12;;;;;;;7.28;5.35;;;27.70;44.30;;;;;;4937369;28;45329;-64
2022/07/25 06:23:38;;;;;;;10.15;5.20;;;27.80;44.20;;;;;;4936617;28;45238;-61
2022/07/25 06:26:08;;;;;;;5.93;5.20;;;27.90;44.20;;;;;;4939074;28;44880;-66
2022/07/25 06:28:34;;;;;;;7.60;5.05;;;28.00;44.20;;;;;;4938301;28;46236;-62
2022/07/25 06:31:00;;;;;;;5.45;4.82;;;28.00;44.00;;;;;;4936274;28;44981;-61
2022/07/25 06:33:26;;;;;;;7.63;5.10;;;28.10;43.90;;;;;;4937492;28;45245;-64
2022/07/25 06:35:53;;;;;;;6.97;5.05;;;28.20;43.90;;;;;;4936613;28;45057;-59
2022/07/25 06:38:19;;;;;;;5.93;4.93;;;28.20;43.80;;;;;;4941225;28;46178;-61
2022/07/25 06:40:45;;;;;;;6.25;4.85;;;28.30;43.80;;;;;;4920788;28;45293;-66
2022/07/25 06:43:11;;;;;;;6.90;4.40;;;28.30;43.70;;;;;;4935801;28;45310;-64
2022/07/25 06:45:38;;;;;;;6.88;4.78;;;28.40;43.60;;;;;;4938458;28;44745;-65
2022/07/25 06:48:04;;;;;;;5.85;5.25;;;28.50;43.70;;;;;;4938340;28;46200;-65
2022/07/25 06:50:31;;;;;;;5.50;4.95;;;28.60;43.40;;;;;;4938503;28;45258;-64
2022/07/25 06:52:57;;;;;;;6.60;5.13;;;28.70;43.30;;;;;;4935913;28;44747;-63
2022/07/25 06:55:23;;;;;;;9.50;5.53;;;28.90;43.20;;;;;;4937567;28;45417;-65
2022/07/25 06:57:50;;;;;;;8.63;5.22;;;29.00;43.10;;;;;;4915550;28;47359;-63
2022/07/25 07:00:16;;;;;;;8.05;5.25;;;29.20;42.70;;;;;;4937804;28;45274;-65
2022/07/25 07:02:57;;;;;;;7.10;5.90;;;29.30;42.40;;;;;;4917126;28;44739;-67
2022/07/25 07:05:24;;;;;;;6.50;5.85;;;29.50;42.40;;;;;;4940442;28;45498;-65
2022/07/25 07:07:50;;;;;;;6.10;5.50;;;29.50;42.30;;;;;;4931182;28;48101;-63
2022/07/25 07:10:17;;;;;;;6.70;5.75;;;29.50;42.30;;;;;;4941901;28;44947;-65
2022/07/25 07:12:43;;;;;;;6.82;5.53;;;29.50;42.40;;;;;;4940993;28;45218;-67
2022/07/25 07:15:10;;;;;;;5.63;5.03;;;29.50;42.40;;;;;;4935974;28;45227;-65
2022/07/25 07:17:36;;;;;;;5.28;4.78;;;29.50;42.50;;;;;;4939643;28;46497;-61
2022/07/25 07:20:04;;;;;;;7.60;5.30;;;29.50;42.50;;;;;;4944938;28;44642;-65
2022/07/25 07:22:30;;;;;;;6.45;5.38;;;29.60;42.60;;;;;;4923552;28;45277;-73
2022/07/25 07:24:56;;;;;;;8.13;6.05;;;29.60;42.60;;;;;;4938978;28;45452;-68
2022/07/25 07:27:23;;;;;;;8.52;6.10;;;29.60;42.80;;;;;;4938733;28;46259;-60
2022/07/25 07:29:49;;;;;;;7.88;6.30;;;29.50;42.80;;;;;;4934424;28;45551;-62
2022/07/25 07:32:16;;;;;;;9.55;6.20;;;29.50;42.90;;;;;;4935485;28;45546;-64
2022/07/25 07:34:42;;;;;;;8.23;6.10;;;29.60;43.00;;;;;;4917799;28;45114;-63
2022/07/25 07:37:08;;;;;;;6.20;5.47;;;29.60;43.10;;;;;;4936050;28;46923;-65
2022/07/25 07:39:35;;;;;;;7.38;5.70;;;29.60;43.10;;;;;;4921064;28;45443;-67
2022/07/25 07:42:01;;;;;;;8.30;6.32;;;29.60;43.10;;;;;;4918612;28;45401;-68
2022/07/25 07:44:27;;;;;;;6.43;5.70;;;29.60;43.10;;;;;;4919115;28;45486;-66
2022/07/25 07:46:54;;;;;;;7.72;5.80;;;29.60;43.10;;;;;;4933204;28;45689;-59
2022/07/25 07:49:20;;;;;;;6.57;5.40;;;29.70;43.10;;;;;;4938171;28;45410;-61
2022/07/25 07:51:46;;;;;;;5.95;5.38;;;29.70;43.10;;;;;;4938795;28;45456;-63
2022/07/25 07:56:58;;;;;;;6.88;6.18;;;29.80;43.20;;;;;;4933672;28;45124;-65
2022/07/25 07:59:24;;;;;;;7.85;6.00;;;29.80;43.20;;;;;;4921063;28;45191;-70
2022/07/25 08:01:50;;;;;;;6.53;5.90;;;29.80;43.20;;;;;;4941565;28;44987;-68
2022/07/25 08:04:17;;;;;;;6.93;5.40;;;29.80;43.10;;;;;;4934500;28;45056;-65
2022/07/25 08:06:43;;;;;;;6.10;5.50;;;29.90;43.20;;;;;;4939168;28;46139;-65
2022/07/25 08:09:09;;;;;;;7.10;5.95;;;29.90;43.20;;;;;;4934008;28;45431;-63
2022/07/25 08:11:35;;;;;;;6.13;5.57;;;29.90;43.10;;;;;;4939054;28;45479;-66
2022/07/25 08:14:03;;;;;;;7.90;6.43;;;30.00;43.20;;;;;;4940001;28;45611;-64
2022/07/25 08:16:29;;;;;;;6.25;5.65;;;30.00;43.10;;;;;;4908485;28;47103;-67
2022/07/25 08:18:56;;;;;;;6.95;6.30;;;30.00;43.10;;;;;;4918380;28;45055;-67
2022/07/25 08:21:21;;;;;;;6.65;6.05;;;30.00;43.00;;;;;;4936538;28;45574;-67
2022/07/25 08:23:47;;;;;;;7.47;5.72;;;30.00;43.00;;;;;;4937322;28;45273;-64
2022/07/25 08:26:15;;;;;;;6.90;5.50;;;30.10;43.10;;;;;;4922486;28;46151;-65
2022/07/25 08:28:41;;;;;;;6.72;5.80;;;30.20;43.10;;;;;;4931386;28;44744;-70
2022/07/25 08:31:06;;;;;;;6.38;5.78;;;30.10;43.00;;;;;;4919008;28;44645;-67
2022/07/25 08:33:32;;;;;;;6.18;5.57;;;30.20;43.00;;;;;;4930843;28;45404;-67
2022/07/25 08:35:57;;;;;;;6.40;5.80;;;30.20;43.00;;;;;;4918678;28;47045;-65
2022/07/25 08:38:24;;;;;;;6.47;5.85;;;30.30;43.00;;;;;;4938939;28;45508;-64
2022/07/25 08:40:51;;;;;;;6.00;5.10;;;30.30;42.90;;;;;;4935485;28;45162;-66
2022/07/25 08:43:17;;;;;;;7.05;6.07;;;30.30;42.90;;;;;;4908547;28;45516;-65
2022/07/25 08:45:49;;;;;;;5.97;5.38;;;30.30;42.90;;;;;;4920662;28;46966;-68
2022/07/25 08:48:22;;;;;;;7.28;5.93;;;30.40;42.90;;;;;;4940036;28;45175;-67
2022/07/25 08:50:48;;;;;;;6.70;5.97;;;30.40;42.90;;;;;;4939379;28;45628;-65
2022/07/25 08:53:14;;;;;;;5.60;5.10;;;30.40;42.90;;;;;;4919073;28;45645;-63
2022/07/25 08:55:41;;;;;;;5.45;4.95;;;30.50;43.00;;;;;;4936095;28;45975;-65
2022/07/25 08:58:06;;;;;;;6.40;5.80;;;30.40;42.80;;;;;;4939023;28;45251;-67
2022/07/25 09:00:32;;;;;;;5.80;5.30;;;30.50;42.80;;;;;;4942386;28;45299;-65
2022/07/25 09:02:59;;;;;;;6.13;5.53;;;30.50;42.80;;;;;;4919128;28;45159;-64
2022/07/25 09:05:25;;;;;;;6.15;5.55;;;30.60;42.80;;;;;;4933545;28;45438;-61
2022/07/25 09:07:51;;;;;;;5.82;5.13;;;30.60;42.80;;;;;;4936422;28;45104;-59
2022/07/25 09:10:24;;;;;;;6.97;5.78;;;30.60;42.70;;;;;;4937831;28;45297;-63
2022/07/25 09:13:01;;;;;;;6.35;5.18;;;30.70;42.70;;;;;;4917890;28;45035;-64
2022/07/25 09:15:28;;;;;;;5.93;5.35;;;30.70;42.60;;;;;;4939403;28;46227;-65
2022/07/25 09:17:55;;;;;;;5.68;5.00;;;30.70;42.70;;;;;;4935848;28;45413;-71
2022/07/25 09:20:20;;;;;;;6.50;5.90;;;30.70;42.60;;;;;;4914809;28;45436;-69
2022/07/25 09:22:46;;;;;;;5.82;5.32;;;30.70;42.60;;;;;;4918677;28;44732;-67
2022/07/25 09:25:21;;;;;;;5.90;5.38;;;30.70;42.60;;;;;;4932973;28;46162;-67
2022/07/25 09:27:47;;;;;;;6.45;5.43;;;30.80;42.60;;;;;;4931137;28;45227;-68
2022/07/25 09:30:13;;;;;;;6.32;5.72;;;30.80;42.60;;;;;;4936799;28;45174;-67
2022/07/25 09:32:39;;;;;;;6.35;5.68;;;30.80;42.50;;;;;;4916774;28;44956;-67
2022/07/25 09:35:05;;;;;;;6.30;5.70;;;30.90;42.60;;;;;;4936753;28;45888;-66
2022/07/25 09:37:31;;;;;;;5.80;5.30;;;30.90;42.60;;;;;;4919796;28;45571;-67
2022/07/25 09:39:56;;;;;;;5.93;5.43;;;30.90;42.60;;;;;;4934851;28;45383;-65
2022/07/25 09:42:33;;;;;;;6.55;5.22;;;31.00;42.60;;;;;;4935439;28;45231;-69
2022/07/25 09:45:12;;;;;;;6.07;5.57;;;31.00;42.60;;;;;;4918386;28;45995;-65
2022/07/25 09:47:54;;;;;;;6.40;5.80;;;31.00;42.50;;;;;;4885260;28;44894;-62
2022/07/25 09:50:20;;;;;;;6.55;5.70;;;31.00;42.50;;;;;;4940088;28;44840;-66
2022/07/25 09:52:46;;;;;;;6.32;5.72;;;31.00;42.60;;;;;;4936731;28;45172;-67
2022/07/25 09:55:13;;;;;;;6.50;5.85;;;31.10;42.60;;;;;;4932490;28;46541;-63
2022/07/25 09:57:39;;;;;;;7.82;6.00;;;31.10;42.60;;;;;;4921571;28;45655;-68
2022/07/25 10:00:06;;;;;;;5.38;4.88;;;31.10;42.50;;;;;;4932046;28;45881;-68
2022/07/25 10:02:48;;;;;;;6.70;6.10;;;31.10;42.50;;;;;;4915818;28;44952;-68
2022/07/25 10:05:46;;;;;;;5.90;5.40;;;31.20;42.50;;;;;;4914846;28;47114;-68
2022/07/25 10:08:12;;;;;;;6.43;5.50;;;31.20;42.50;;;;;;4918528;28;45193;-68
2022/07/25 10:10:39;;;;;;;6.50;5.20;;;31.20;42.50;;;;;;4918083;28;45013;-72
2022/07/25 10:13:14;;;;;;;7.10;5.50;;;31.20;42.50;;;;;;4928825;28;44821;-71
2022/07/25 10:15:47;;;;;;;6.85;6.13;;;31.20;42.50;;;;;;4916191;28;47118;-68
2022/07/25 10:18:13;;;;;;;8.50;6.28;;;31.30;42.50;;;;;;4915544;28;45245;-69
2022/07/25 10:20:39;;;;;;;6.03;5.38;;;31.20;42.50;;;;;;4933853;28;45466;-68
2022/07/25 10:23:22;;;;;;;6.75;5.43;;;31.30;42.60;;;;;;4934269;28;45008;-70
2022/07/25 10:26:06;;;;;;;5.78;5.15;;;31.30;42.50;;;;;;4922467;28;46040;-65
2022/07/25 10:28:49;;;;;;;6.43;5.82;;;31.30;42.50;;;;;;4936558;28;45433;-70
2022/07/25 10:31:17;;;;;;;6.45;5.85;;;31.40;42.50;;;;;;4913164;28;45408;-67
2022/07/25 10:33:45;;;;;;;5.55;5.05;;;31.40;42.50;;;;;;4940909;28;45085;-67
2022/07/25 10:36:11;;;;;;;5.97;5.40;;;31.40;42.40;;;;;;4939931;28;45635;-65
2022/07/25 10:38:39;;;;;;;5.75;5.25;;;31.40;42.40;;;;;;4942423;28;45225;-69
2022/07/25 10:41:07;;;;;;;6.88;6.25;;;31.40;42.40;;;;;;4936237;28;45321;-69
2022/07/25 10:43:39;;;;;;;6.20;5.70;;;31.40;42.30;;;;;;4904247;28;45646;-70
2022/07/25 10:46:12;;;;;;;6.05;5.53;;;31.40;42.20;;;;;;4932263;28;46164;-69
2022/07/25 10:48:38;;;;;;;6.50;5.90;;;31.50;42.20;;;;;;4936353;28;45607;-71
2022/07/25 10:51:11;;;;;;;6.25;5.65;;;31.50;42.30;;;;;;4935586;28;45412;-65
2022/07/25 10:53:37;;;;;;;;;;;31.50;42.20;;;;;;4932922;28;45571;-67
2022/07/25 10:56:15;;;;;;;5.95;5.35;;;31.50;42.20;;;;;;4934904;28;45497;-70
2022/07/25 10:58:49;;;;;;;6.82;6.22;;;31.50;42.10;;;;;;4940181;28;45446;-67
2022/07/25 11:01:31;;;;;;;7.50;6.22;;;31.50;42.10;;;;;;4933017;28;45542;-66
2022/07/25 11:04:01;;;;;;;7.35;5.55;;;31.50;42.80;;;;;;4919186;28;45095;-69
2022/07/25 11:06:37;;;;;;;6.50;5.90;;;31.50;42.20;;;;;;4933360;28;45930;-73
2022/07/25 11:09:23;;;;;;;6.80;6.10;;;31.50;42.30;;;;;;4930867;28;45408;-70
2022/07/25 11:11:50;;;;;;;6.80;6.13;;;31.50;42.20;;;;;;4933010;28;44956;-71
2022/07/25 11:14:31;;;;;;;6.78;6.13;;;31.50;42.20;;;;;;4942190;28;45184;-70
2022/07/25 11:16:56;;;;;;;6.57;5.97;;;31.60;42.20;;;;;;4932316;28;45979;-70
2022/07/25 11:19:26;;;;;;;6.78;6.13;;;31.60;42.30;;;;;;4937482;28;45207;-64
2022/07/25 11:21:54;;;;;;;6.57;5.95;;;31.60;42.30;;;;;;4921111;28;45641;-68
2022/07/25 11:24:20;;;;;;;6.53;5.93;;;31.60;42.30;;;;;;4940577;28;45267;-66
2022/07/25 11:26:51;;;;;;;6.38;5.78;;;31.60;42.20;;;;;;4920260;28;46911;-66
2022/07/25 11:29:25;;;;;;;7.10;6.50;;;31.60;42.10;;;;;;4923591;28;45048;-65
2022/07/25 11:31:52;;;;;;;6.78;6.20;;;31.60;42.10;;;;;;4931543;28;45316;-66
2022/07/25 11:34:23;;;;;;;6.57;5.75;;;31.60;42.20;;;;;;4941787;28;45357;-70
2022/07/25 11:36:50;;;;;;;6.50;5.90;;;31.60;42.20;;;;;;4934907;28;46086;-71
2022/07/25 11:39:18;;;;;;;6.30;5.80;;;31.70;42.20;;;;;;4905455;28;45389;-69
2022/07/25 11:41:44;;;;;;;6.57;6.07;;;31.70;42.30;;;;;;4919249;28;45080;-67
2022/07/25 11:44:09;;;;;;;7.60;6.47;;;31.70;42.30;;;;;;4933817;28;45434;-68
2022/07/25 11:46:43;;;;;;;6.38;5.80;;;31.70;42.20;;;;;;4935808;28;45884;-66
2022/07/25 11:49:08;;;;;;;6.85;5.75;;;31.70;42.30;;;;;;4940557;28;45251;-68
2022/07/25 11:51:37;;;;;;;6.88;6.28;;;31.70;42.30;;;;;;4931937;28;45072;-65
2022/07/25 11:54:09;;;;;;;7.13;6.50;;;31.70;42.30;;;;;;4902821;28;45280;-66
2022/07/25 11:56:38;;;;;;;6.73;6.13;;;31.80;42.40;;;;;;4941207;28;46109;-63
2022/07/25 11:59:04;;;;;;;6.75;6.15;;;31.80;42.40;;;;;;4941303;28;45434;-64
2022/07/25 12:01:37;;;;;;;6.53;5.90;;;31.80;42.40;;;;;;4934795;28;44955;-68
2022/07/25 12:04:13;;;;;;;6.65;6.05;;;31.80;42.30;;;;;;4931151;28;45447;-67
2022/07/25 12:06:39;;;;;;;6.32;5.82;;;31.80;42.30;;;;;;4937748;28;45454;-68
2022/07/25 12:09:15;;;;;;;6.13;5.63;;;31.80;42.40;;;;;;4935115;28;45403;-68
2022/07/25 12:11:41;;;;;;;8.77;6.30;;;31.80;42.40;;;;;;4936592;28;44667;-65
2022/07/25 12:14:07;;;;;;;6.30;5.43;;;31.80;42.40;;;;;;4914756;28;45240;-66
2022/07/25 12:16:33;;;;;;;7.03;6.43;;;31.90;42.40;;;;;;4927694;28;46004;-68
2022/07/25 12:18:58;;;;;;;5.95;5.45;;;31.90;42.50;;;;;;4934793;28;45609;-72
2022/07/25 12:21:25;;;;;;;6.75;6.15;;;31.90;42.50;;;;;;4933817;28;45759;-69
2022/07/25 12:23:51;;;;;;;6.40;5.80;;;31.90;42.50;;;;;;4934107;28;45315;-70
2022/07/25 12:26:16;;;;;;;6.32;5.82;;;31.90;42.50;;;;;;4901426;28;45368;-71
2022/07/25 12:28:42;;;;;;;6.32;5.72;;;31.90;42.50;;;;;;4916391;28;44734;-66
2022/07/25 12:31:08;;;;;;;5.45;5.05;;;31.90;42.60;;;;;;4905368;28;46333;-67
2022/07/25 12:33:34;;;;;;;6.22;5.63;;;31.90;42.50;;;;;;4933310;28;44797;-70
2022/07/25 12:36:00;;;;;;;6.60;6.00;;;32.00;42.60;;;;;;4897212;28;46969;-70
2022/07/25 12:38:26;;;;;;;6.63;6.03;;;32.00;42.70;;;;;;4920141;28;45020;-66
2022/07/25 12:40:51;;;;;;;6.25;5.72;;;32.00;42.60;;;;;;4934015;28;45233;-69
2022/07/25 12:43:17;;;;;;;6.63;6.03;;;32.00;42.60;;;;;;4912615;28;45488;-65
2022/07/25 12:45:43;;;;;;;6.55;5.90;;;32.00;42.60;;;;;;4933491;28;46065;-68
2022/07/25 12:48:09;;;;;;;6.72;5.97;;;32.10;42.70;;;;;;4918712;28;45623;-66
2022/07/25 12:50:34;;;;;;;6.20;5.57;;;32.10;42.70;;;;;;4935683;28;45444;-68
2022/07/25 12:53:00;;;;;;;6.70;6.10;;;32.10;42.80;;;;;;4932397;28;45186;-65
2022/07/25 12:55:26;;;;;;;6.20;5.70;;;32.10;42.80;;;;;;4931857;28;46953;-72
2022/07/25 12:57:52;;;;;;;6.45;5.85;;;32.10;42.80;;;;;;4936069;28;45509;-65
2022/07/25 13:00:19;;;;;;;6.53;5.93;;;32.10;42.90;;;;;;4942122;28;44830;-67
2022/07/25 13:02:44;;;;;;;6.60;5.70;;;32.10;42.90;;;;;;4922367;28;44701;-67
2022/07/25 13:05:10;;;;;;;6.45;5.82;;;32.20;43.00;;;;;;4937489;28;46243;-65
2022/07/25 13:07:35;;;;;;;6.95;6.35;;;32.20;43.00;;;;;;4936223;28;45217;-67
2022/07/25 13:10:02;;;;;;;6.90;6.10;;;32.20;42.90;;;;;;4942778;28;45122;-69
2022/07/25 13:12:28;;;;;;;6.50;5.53;;;32.20;43.00;;;;;;4939504;28;45284;-66
2022/07/25 13:14:53;;;;;;;6.07;5.57;;;32.20;42.80;;;;;;4936331;28;47021;-67
2022/07/25 13:17:19;;;;;;;6.32;5.72;;;32.20;42.80;;;;;;4942631;28;45584;-69
2022/07/25 13:19:44;;;;;;;6.03;5.53;;;32.20;42.80;;;;;;4920622;28;45269;-64
2022/07/25 13:22:10;;;;;;;6.50;5.80;;;32.20;42.80;;;;;;4938603;28;44869;-67
2022/07/25 13:24:38;;;;;;;5.93;5.43;;;32.20;42.70;;;;;;4905947;28;46102;-67
2022/07/25 13:27:04;;;;;;;5.78;5.28;;;32.30;42.80;;;;;;4927560;28;45444;-65
2022/07/25 13:29:30;;;;;;;6.40;5.85;;;32.30;42.70;;;;;;4916427;28;45252;-66
2022/07/25 13:31:55;;;;;;;6.28;5.68;;;32.30;42.70;;;;;;4921740;28;45457;-66
2022/07/25 13:34:21;;;;;;;6.43;5.82;;;32.30;42.60;;;;;;4922341;28;46335;-73
2022/07/25 13:36:46;;;;;;;5.78;5.30;;;32.30;42.50;;;;;;4933552;28;45246;-68
2022/07/25 13:39:12;;;;;;;6.45;5.85;;;32.30;42.50;;;;;;4917567;28;44687;-69
2022/07/25 13:41:38;;;;;;;6.28;5.78;;;32.40;42.50;;;;;;4921070;28;45255;-64
2022/07/25 13:44:04;;;;;;;6.53;5.93;;;32.40;42.40;;;;;;4944995;28;47320;-63
2022/07/25 13:46:30;;;;;;;7.03;5.30;;;32.40;42.40;;;;;;4901824;28;44759;-67
2022/07/25 13:48:56;;;;;;;6.40;5.80;;;32.40;42.50;;;;;;4934898;28;44676;-66
2022/07/25 13:51:21;;;;;;;6.20;5.60;;;32.40;42.50;;;;;;4945419;28;45439;-65
2022/07/25 13:53:47;;;;;;;5.85;5.35;;;32.40;42.50;;;;;;4935554;28;45981;-67
2022/07/25 13:56:13;;;;;;;5.97;5.47;;;32.50;42.50;;;;;;4941299;28;45718;-66
2022/07/25 13:58:39;;;;;;;5.45;4.95;;;32.40;42.40;;;;;;4905514;28;45494;-65
2022/07/25 14:01:06;;;;;;;5.60;5.07;;;32.40;42.40;;;;;;4936895;28;45128;-69
2022/07/25 14:03:32;;;;;;;5.72;5.22;;;32.50;42.40;;;;;;4922174;28;45466;-67
2022/07/25 14:05:57;;;;;;;5.40;4.90;;;32.50;42.40;;;;;;4940059;28;44884;-68
2022/07/25 14:08:25;;;;;;;5.85;5.30;;;32.50;42.40;;;;;;4918298;28;45337;-66
2022/07/25 14:10:51;;;;;;;6.75;4.97;;;32.50;42.40;;;;;;4939850;28;45308;-67
2022/07/25 14:13:16;;;;;;;5.75;5.25;;;32.50;42.30;;;;;;4922050;28;45388;-65
2022/07/25 14:15:42;;;;;;;5.70;5.20;;;32.50;42.20;;;;;;4939705;28;45431;-66
2022/07/25 14:18:08;;;;;;;9.05;5.40;;;32.50;42.20;;;;;;4939652;28;45244;-65
2022/07/25 14:20:34;;;;;;;5.78;5.05;;;32.60;42.20;;;;;;4937140;28;45305;-67
2022/07/25 14:22:59;;;;;;;4.65;4.25;;;32.60;42.10;;;;;;4942840;28;45709;-63
2022/07/25 14:25:25;;;;;;;5.95;5.05;;;32.60;42.10;;;;;;4934997;28;44909;-67
2022/07/25 14:27:51;;;;;;;5.63;5.13;;;32.60;42.00;;;;;;4902249;28;44978;-68
2022/07/25 14:30:16;;;;;;;5.00;4.60;;;32.60;42.00;;;;;;4936974;28;44898;-67
2022/07/25 14:32:42;;;;;;;6.28;4.75;;;32.70;42.00;;;;;;4939783;28;45941;-66
2022/07/25 14:35:09;;;;;;;5.68;5.28;;;32.60;41.90;;;;;;4936036;28;45264;-67
2022/07/25 14:37:35;;;;;;;5.38;4.90;;;32.70;41.90;;;;;;4936740;28;45249;-66
2022/07/25 14:40:01;;;;;;;4.65;4.25;;;32.70;41.90;;;;;;4916181;28;45666;-67
2022/07/25 14:42:27;;;;;;;5.13;4.72;;;32.70;41.80;;;;;;4933468;28;46267;-66
2022/07/25 14:44:52;;;;;;;5.35;4.85;;;32.70;41.70;;;;;;4936284;28;45447;-66
2022/07/25 14:47:18;;;;;;;5.90;5.40;;;32.80;41.80;;;;;;4934554;28;45156;-70
2022/07/25 14:49:43;;;;;;;5.47;5.03;;;32.70;41.70;;;;;;4933111;28;45257;-65
2022/07/25 14:52:10;;;;;;;6.40;5.18;;;32.70;41.80;;;;;;4939402;28;45956;-67
2022/07/25 14:54:36;;;;;;;5.53;5.03;;;32.70;41.80;;;;;;4922072;28;45222;-63
2022/07/25 14:57:02;;;;;;;5.75;5.25;;;32.70;41.80;;;;;;4932173;28;45386;-65
2022/07/25 14:59:28;;;;;;;5.10;4.70;;;32.70;41.80;;;;;;4940194;28;45391;-66
2022/07/25 15:01:54;;;;;;;5.13;4.60;;;32.70;41.80;;;;;;4932457;28;45423;-65
2022/07/25 15:04:21;;;;;;;6.22;5.18;;;32.70;41.80;;;;;;4935478;28;45473;-65
2022/07/25 15:06:47;;;;;;;5.43;5.03;;;32.70;41.80;;;;;;4937558;28;45414;-64
2022/07/25 15:09:13;;;;;;;5.72;5.22;;;32.70;41.80;;;;;;4925355;28;45454;-66
2022/07/25 15:11:39;;;;;;;5.03;4.53;;;32.70;41.80;;;;;;4928623;28;45939;-67
2022/07/25 15:14:04;;;;;;;5.57;5.10;;;32.70;41.80;;;;;;4936755;28;45431;-65
2022/07/25 15:16:30;;;;;;;5.45;4.95;;;32.70;41.80;;;;;;4939054;28;45510;-64
2022/07/25 15:18:56;;;;;;;4.90;3.90;;;32.70;41.80;;;;;;4930829;28;45257;-66
2022/07/25 15:21:22;;;;;;;3.88;3.58;;;32.80;41.20;;;;;;4928212;28;46100;-68
2022/07/25 15:23:48;;;;;;;4.57;3.75;;;32.80;40.20;;;;;;4934676;28;45298;-67
2022/07/25 15:26:13;;;;;;;5.15;3.38;;;32.90;39.30;;;;;;4921100;28;45345;-65
2022/07/25 15:28:39;;;;;;;4.20;3.80;;;32.90;38.70;;;;;;4934405;28;45541;-65
2022/07/25 15:31:04;;;;;;;5.28;3.90;;;33.00;38.10;;;;;;4934328;28;46087;-69
2022/07/25 15:33:30;;;;;;;4.57;3.53;;;33.00;37.60;;;;;;4931587;28;45616;-68
2022/07/25 15:35:56;;;;;;;6.00;3.20;;;33.10;37.10;;;;;;4918054;28;45162;-66
2022/07/25 15:38:22;;;;;;;3.90;3.50;;;33.10;36.70;;;;;;4915627;28;45315;-65
2022/07/25 15:40:47;;;;;;;4.15;3.58;;;33.20;36.20;;;;;;4934169;28;46513;-65
2022/07/25 15:43:13;;;;;;;4.10;3.70;;;33.20;36.00;;;;;;4926218;28;45420;-67
2022/07/25 15:45:39;;;;;;;4.95;3.83;;;33.20;35.70;;;;;;4928384;28;45562;-67
2022/07/25 15:48:07;;;;;;;6.47;3.85;;;33.20;35.40;;;;;;4895786;28;45135;-68